Terminal Aerodrome Forecast
Issued by NWS

Home | Current Version | Previous Version | Text Only | Print | Product List | Glossary On
Versions: 1 2 3 4 5 6 7 8 9 10 11 12
000
FTUS42 KMLB 011125
TAFSFB
TAF
KSFB 011125Z 0112/0212 13004KT P6SM SCT150 BKN250
     FM011400 14008KT P6SM FEW040 BKN250
     FM012000 11011KT P6SM FEW060 BKN250
     FM020200 11005KT P6SM SCT250=

USA.gov is the U.S. government's official web portal to all federal, state and local government web resources and services.